sensor_id;sensor_type;location;lat;lon;timestamp;pressure;altitude;pressure_sealevel;temperature;humidity
67818;BME280;54614;47.576;7.524;2023-08-17T16:14:05;98315.13;;;28.35;57.17
67818;BME280;54614;47.576;7.524;2023-08-17T16:16:30;98317.25;;;28.33;56.96
67818;BME280;54614;47.576;7.524;2023-08-17T16:18:56;98318.81;;;28.29;57.25
67818;BME280;54614;47.576;7.524;2023-08-17T16:21:22;98313.31;;;28.24;57.44
67818;BME280;54614;47.576;7.524;2023-08-17T16:23:47;98321.66;;;28.22;57.45
67818;BME280;54614;47.576;7.524;2023-08-17T16:26:13;98318.09;;;28.22;57.42
67818;BME280;54614;47.576;7.524;2023-08-17T16:28:39;98316.59;;;28.26;57.16
67818;BME280;54614;47.576;7.524;2023-08-17T16:31:05;98319.00;;;28.39;57.03
67818;BME280;54614;47.576;7.524;2023-08-17T16:33:31;98315.81;;;28.42;56.49
67818;BME280;54614;47.576;7.524;2023-08-17T16:35:58;98312.63;;;28.45;56.83
67818;BME280;54614;47.576;7.524;2023-08-17T16:38:24;98318.28;;;28.44;56.86
67818;BME280;54614;47.576;7.524;2023-08-17T16:40:50;98306.13;;;28.46;56.80
67818;BME280;54614;47.576;7.524;2023-08-17T16:43:16;98301.56;;;28.47;56.73
67818;BME280;54614;47.576;7.524;2023-08-17T16:45:45;98305.72;;;28.38;56.87
67818;BME280;54614;47.576;7.524;2023-08-17T16:48:11;98311.94;;;28.38;57.04
67818;BME280;54614;47.576;7.524;2023-08-17T16:50:37;98306.88;;;28.42;56.57
67818;BME280;54614;47.576;7.524;2023-08-17T16:53:03;98304.75;;;28.44;56.63
67818;BME280;54614;47.576;7.524;2023-08-17T16:55:29;98301.22;;;28.43;56.65
67818;BME280;54614;47.576;7.524;2023-08-17T16:57:55;98300.88;;;28.40;56.85
67818;BME280;54614;47.576;7.524;2023-08-17T17:00:22;98296.28;;;28.40;56.94
67818;BME280;54614;47.576;7.524;2023-08-17T17:02:48;98299.56;;;28.42;56.85
67818;BME280;54614;47.576;7.524;2023-08-17T17:05:14;98299.25;;;28.39;56.70
67818;BME280;54614;47.576;7.524;2023-08-17T17:07:41;98297.34;;;28.39;56.69
67818;BME280;54614;47.576;7.524;2023-08-17T17:10:07;98295.97;;;28.37;56.66
67818;BME280;54614;47.576;7.524;2023-08-17T17:12:33;98289.72;;;28.36;56.88
67818;BME280;54614;47.576;7.524;2023-08-17T17:14:59;98291.63;;;28.36;56.95
67818;BME280;54614;47.576;7.524;2023-08-17T17:17:25;98291.03;;;28.34;56.89
67818;BME280;54614;47.576;7.524;2023-08-17T17:19:50;98298.91;;;28.35;56.70
67818;BME280;54614;47.576;7.524;2023-08-17T17:22:16;98296.44;;;28.34;56.85
67818;BME280;54614;47.576;7.524;2023-08-17T17:24:42;98298.34;;;28.33;56.94
67818;BME280;54614;47.576;7.524;2023-08-17T17:27:08;98295.88;;;28.32;57.09
67818;BME280;54614;47.576;7.524;2023-08-17T17:29:33;98298.81;;;28.30;57.28
67818;BME280;54614;47.576;7.524;2023-08-17T17:31:59;98296.94;;;28.31;57.16
67818;BME280;54614;47.576;7.524;2023-08-17T17:34:25;98306.09;;;28.30;57.43
67818;BME280;54614;47.576;7.524;2023-08-17T17:36:51;98308.81;;;28.30;57.62
67818;BME280;54614;47.576;7.524;2023-08-17T17:39:17;98302.00;;;28.27;57.21
67818;BME280;54614;47.576;7.524;2023-08-17T17:41:42;98304.72;;;28.27;57.26
67818;BME280;54614;47.576;7.524;2023-08-17T17:44:09;98301.19;;;28.27;57.44
67818;BME280;54614;47.576;7.524;2023-08-17T17:46:34;98304.47;;;28.29;57.60
67818;BME280;54614;47.576;7.524;2023-08-17T17:49:00;98292.25;;;28.26;57.60
67818;BME280;54614;47.576;7.524;2023-08-17T17:51:26;98302.25;;;28.26;57.48
67818;BME280;54614;47.576;7.524;2023-08-17T17:53:52;98296.84;;;28.26;57.56
67818;BME280;54614;47.576;7.524;2023-08-17T17:56:17;98308.00;;;28.17;55.77
67818;BME280;54614;47.576;7.524;2023-08-17T17:58:43;98314.50;;;28.16;52.18
67818;BME280;54614;47.576;7.524;2023-08-17T18:01:09;98315.31;;;28.17;50.72
67818;BME280;54614;47.576;7.524;2023-08-17T18:03:35;98314.25;;;28.18;50.91
67818;BME280;54614;47.576;7.524;2023-08-17T18:06:01;98314.06;;;28.08;49.48
67818;BME280;54614;47.576;7.524;2023-08-17T18:08:26;98316.75;;;28.08;48.95
67818;BME280;54614;47.576;7.524;2023-08-17T18:10:52;98328.88;;;28.05;49.30
67818;BME280;54614;47.576;7.524;2023-08-17T18:13:19;98324.75;;;28.03;49.11
67818;BME280;54614;47.576;7.524;2023-08-17T18:15:45;98328.28;;;28.03;48.73
67818;BME280;54614;47.576;7.524;2023-08-17T18:18:10;98341.38;;;27.95;48.27
67818;BME280;54614;47.576;7.524;2023-08-17T18:20:36;98342.78;;;27.97;47.99
67818;BME280;54614;47.576;7.524;2023-08-17T18:23:02;98342.19;;;27.95;48.36
67818;BME280;54614;47.576;7.524;2023-08-17T18:25:28;98349.03;;;27.86;48.55
67818;BME280;54614;47.576;7.524;2023-08-17T18:27:55;98351.50;;;27.87;48.94
67818;BME280;54614;47.576;7.524;2023-08-17T18:30:21;98355.59;;;27.90;48.81
67818;BME280;54614;47.576;7.524;2023-08-17T18:32:47;98365.25;;;27.86;47.69
67818;BME280;54614;47.576;7.524;2023-08-17T18:35:13;98359.25;;;27.84;48.64
67818;BME280;54614;47.576;7.524;2023-08-17T18:37:39;98360.31;;;27.83;47.85
67818;BME280;54614;47.576;7.524;2023-08-17T18:40:07;98363.03;;;27.71;48.96
67818;BME280;54614;47.576;7.524;2023-08-17T18:42:35;98365.84;;;27.76;47.29
67818;BME280;54614;47.576;7.524;2023-08-17T18:45:01;98366.94;;;27.64;46.85
67818;BME280;54614;47.576;7.524;2023-08-17T18:47:27;98368.09;;;27.68;47.46
67818;BME280;54614;47.576;7.524;2023-08-17T18:49:52;98362.34;;;27.64;46.54
67818;BME280;54614;47.576;7.524;2023-08-17T18:52:18;98359.16;;;27.67;46.88
67818;BME280;54614;47.576;7.524;2023-08-17T18:55:02;98362.34;;;27.64;48.07
67818;BME280;54614;47.576;7.524;2023-08-17T18:57:29;98359.88;;;27.63;47.77
67818;BME280;54614;47.576;7.524;2023-08-17T18:59:55;98367.84;;;27.57;48.11
67818;BME280;54614;47.576;7.524;2023-08-17T19:02:21;98364.31;;;27.57;48.17
67818;BME280;54614;47.576;7.524;2023-08-17T19:04:48;98370.44;;;27.52;48.20
67818;BME280;54614;47.576;7.524;2023-08-17T19:07:15;98377.47;;;27.53;46.24
67818;BME280;54614;47.576;7.524;2023-08-17T19:09:41;98381.81;;;27.54;46.78
67818;BME280;54614;47.576;7.524;2023-08-17T19:12:07;98387.34;;;27.36;47.28
67818;BME280;54614;47.576;7.524;2023-08-17T19:14:32;98392.16;;;27.34;47.56
67818;BME280;54614;47.576;7.524;2023-08-17T19:16:58;98388.28;;;27.30;47.95
67818;BME280;54614;47.576;7.524;2023-08-17T19:19:24;98391.69;;;27.49;49.08
67818;BME280;54614;47.576;7.524;2023-08-17T19:21:50;98389.59;;;27.51;48.50
67818;BME280;54614;47.576;7.524;2023-08-17T19:24:16;98395.09;;;27.33;48.89
67818;BME280;54614;47.576;7.524;2023-08-17T19:26:42;98389.81;;;27.26;48.47
67818;BME280;54614;47.576;7.524;2023-08-17T19:29:08;98397.78;;;27.21;48.74
67818;BME280;54614;47.576;7.524;2023-08-17T19:31:35;98401.06;;;27.11;48.80
67818;BME280;54614;47.576;7.524;2023-08-17T19:34:03;98402.13;;;27.22;48.73
67818;BME280;54614;47.576;7.524;2023-08-17T19:36:33;98399.91;;;27.19;48.58
67818;BME280;54614;47.576;7.524;2023-08-17T19:38:58;98403.06;;;27.27;48.21
67818;BME280;54614;47.576;7.524;2023-08-17T19:41:24;98394.97;;;27.27;48.63
67818;BME280;54614;47.576;7.524;2023-08-17T19:43:50;98402.72;;;27.24;48.27
67818;BME280;54614;47.576;7.524;2023-08-17T19:46:15;98391.00;;;27.30;48.53
67818;BME280;54614;47.576;7.524;2023-08-17T19:48:41;98394.16;;;27.27;48.59
67818;BME280;54614;47.576;7.524;2023-08-17T19:51:08;98396.28;;;27.25;48.45
67818;BME280;54614;47.576;7.524;2023-08-17T19:53:33;98394.84;;;27.22;49.14
67818;BME280;54614;47.576;7.524;2023-08-17T19:55:59;98396.38;;;27.30;49.50
67818;BME280;54614;47.576;7.524;2023-08-17T19:58:25;98394.50;;;27.31;49.79
67818;BME280;54614;47.576;7.524;2023-08-17T20:00:53;98393.81;;;27.47;50.24
67818;BME280;54614;47.576;7.524;2023-08-17T20:03:19;98394.16;;;27.50;50.00
67818;BME280;54614;47.576;7.524;2023-08-17T20:05:46;98401.44;;;27.50;49.95
67818;BME280;54614;47.576;7.524;2023-08-17T20:08:12;98396.88;;;27.50;49.80
67818;BME280;54614;47.576;7.524;2023-08-17T20:10:39;98394.97;;;27.51;50.07
67818;BME280;54614;47.576;7.524;2023-08-17T20:13:04;98397.91;;;27.26;49.75
67818;BME280;54614;47.576;7.524;2023-08-17T20:15:30;98394.25;;;27.20;49.83
67818;BME280;54614;47.576;7.524;2023-08-17T20:17:56;98388.97;;;27.14;49.83
67818;BME280;54614;47.576;7.524;2023-08-17T20:20:21;98393.19;;;27.10;48.93
67818;BME280;54614;47.576;7.524;2023-08-17T20:22:47;98388.28;;;27.18;49.79
67818;BME280;54614;47.576;7.524;2023-08-17T20:25:13;98389.81;;;27.26;49.54
67818;BME280;54614;47.576;7.524;2023-08-17T20:27:42;98385.13;;;27.45;49.81
67818;BME280;54614;47.576;7.524;2023-08-17T20:30:08;98387.13;;;27.49;49.37
67818;BME280;54614;47.576;7.524;2023-08-17T20:32:34;98392.50;;;27.26;48.54
67818;BME280;54614;47.576;7.524;2023-08-17T20:35:00;98387.69;;;27.40;50.34
67818;BME280;54614;47.576;7.524;2023-08-17T20:37:26;98389.09;;;27.54;49.77
67818;BME280;54614;47.576;7.524;2023-08-17T20:39:51;98379.84;;;27.62;52.14
67818;BME280;54614;47.576;7.524;2023-08-17T20:42:18;98392.31;;;27.63;50.40
67818;BME280;54614;47.576;7.524;2023-08-17T20:44:44;98391.72;;;27.60;50.74
67818;BME280;54614;47.576;7.524;2023-08-17T20:47:11;98392.06;;;27.64;50.94
67818;BME280;54614;47.576;7.524;2023-08-17T20:49:37;98387.25;;;27.66;50.99
67818;BME280;54614;47.576;7.524;2023-08-17T20:52:06;98401.25;;;27.63;50.94
67818;BME280;54614;47.576;7.524;2023-08-17T20:54:32;98399.94;;;27.66;50.92
67818;BME280;54614;47.576;7.524;2023-08-17T20:56:58;98410.38;;;27.74;50.88
67818;BME280;54614;47.576;7.524;2023-08-17T20:59:24;98403.56;;;27.71;50.96
67818;BME280;54614;47.576;7.524;2023-08-17T21:01:51;98404.16;;;27.62;51.04
67818;BME280;54614;47.576;7.524;2023-08-17T21:04:17;98406.38;;;27.41;50.73
67818;BME280;54614;47.576;7.524;2023-08-17T21:06:43;98410.34;;;27.27;50.82
67818;BME280;54614;47.576;7.524;2023-08-17T21:09:09;98409.41;;;27.21;50.32
67818;BME280;54614;47.576;7.524;2023-08-17T21:11:37;98407.63;;;27.04;49.47
67818;BME280;54614;47.576;7.524;2023-08-17T21:14:03;98419.25;;;27.04;49.84
67818;BME280;54614;47.576;7.524;2023-08-17T21:16:30;98407.41;;;27.05;49.37
67818;BME280;54614;47.576;7.524;2023-08-17T21:18:56;98416.66;;;26.98;49.74
67818;BME280;54614;47.576;7.524;2023-08-17T21:21:28;98424.78;;;26.79;48.71
67818;BME280;54614;47.576;7.524;2023-08-17T21:23:55;98420.84;;;26.93;48.95
67818;BME280;54614;47.576;7.524;2023-08-17T21:26:21;98426.63;;;26.97;49.07
67818;BME280;54614;47.576;7.524;2023-08-17T21:28:47;98424.31;;;26.82;48.82
67818;BME280;54614;47.576;7.524;2023-08-17T21:31:13;98417.41;;;26.86;50.20
67818;BME280;54614;47.576;7.524;2023-08-17T21:33:39;98429.69;;;26.71;48.31
67818;BME280;54614;47.576;7.524;2023-08-17T21:36:06;98428.50;;;26.67;49.09
67818;BME280;54614;47.576;7.524;2023-08-17T21:38:33;98425.88;;;26.90;48.56
67818;BME280;54614;47.576;7.524;2023-08-17T21:41:00;98427.66;;;26.96;48.40
67818;BME280;54614;47.576;7.524;2023-08-17T21:43:27;98418.41;;;27.04;48.23
67818;BME280;54614;47.576;7.524;2023-08-17T21:45:55;98424.06;;;27.02;48.29
67818;BME280;54614;47.576;7.524;2023-08-17T21:48:22;98419.94;;;27.00;48.42
67818;BME280;54614;47.576;7.524;2023-08-17T21:50:48;98426.63;;;26.67;48.92
67818;BME280;54614;47.576;7.524;2023-08-17T21:53:15;98427.31;;;26.62;48.91
67818;BME280;54614;47.576;7.524;2023-08-17T21:55:51;98432.16;;;26.72;48.44
67818;BME280;54614;47.576;7.524;2023-08-17T21:58:18;98427.84;;;26.53;48.93
67818;BME280;54614;47.576;7.524;2023-08-17T22:00:45;98433.44;;;26.70;48.62
67818;BME280;54614;47.576;7.524;2023-08-17T22:03:12;98435.06;;;26.71;50.85
67818;BME280;54614;47.576;7.524;2023-08-17T22:05:39;98432.44;;;26.94;50.77
67818;BME280;54614;47.576;7.524;2023-08-17T22:08:05;98432.69;;;26.92;50.04
67818;BME280;54614;47.576;7.524;2023-08-17T22:10:32;98428.47;;;26.96;49.68
67818;BME280;54614;47.576;7.524;2023-08-17T22:12:58;98431.16;;;26.96;49.66
67818;BME280;54614;47.576;7.524;2023-08-17T22:15:24;98436.41;;;27.10;49.34
67818;BME280;54614;47.576;7.524;2023-08-17T22:17:51;98427.84;;;27.13;49.42
67818;BME280;54614;47.576;7.524;2023-08-17T22:20:17;98427.97;;;27.18;49.53
67818;BME280;54614;47.576;7.524;2023-08-17T22:22:44;98438.53;;;27.19;49.26
67818;BME280;54614;47.576;7.524;2023-08-17T22:25:11;98431.72;;;27.17;49.04
67818;BME280;54614;47.576;7.524;2023-08-17T22:27:38;98431.47;;;27.18;49.20
67818;BME280;54614;47.576;7.524;2023-08-17T22:30:04;98437.59;;;27.25;49.30
67818;BME280;54614;47.576;7.524;2023-08-17T22:32:30;98427.84;;;27.24;49.34
67818;BME280;54614;47.576;7.524;2023-08-17T22:34:56;98426.78;;;27.25;49.28
67818;BME280;54614;47.576;7.524;2023-08-17T22:37:23;98433.00;;;27.26;49.43
67818;BME280;54614;47.576;7.524;2023-08-17T22:39:49;98431.97;;;27.27;49.35
67818;BME280;54614;47.576;7.524;2023-08-17T22:42:15;98437.38;;;27.27;49.61
67818;BME280;54614;47.576;7.524;2023-08-17T22:44:41;98440.66;;;27.29;49.72
67818;BME280;54614;47.576;7.524;2023-08-17T22:47:07;98437.13;;;27.28;49.39
67818;BME280;54614;47.576;7.524;2023-08-17T22:49:33;98430.22;;;27.33;49.54
67818;BME280;54614;47.576;7.524;2023-08-17T22:51:59;98435.03;;;27.31;49.28
67818;BME280;54614;47.576;7.524;2023-08-17T22:54:29;98430.91;;;27.28;49.50
67818;BME280;54614;47.576;7.524;2023-08-17T22:56:55;98435.50;;;27.27;49.23
67818;BME280;54614;47.576;7.524;2023-08-17T22:59:21;98435.72;;;27.26;49.58
67818;BME280;54614;47.576;7.524;2023-08-17T23:01:48;98432.44;;;27.24;49.25
67818;BME280;54614;47.576;7.524;2023-08-17T23:04:14;98430.91;;;27.28;49.19
67818;BME280;54614;47.576;7.524;2023-08-17T23:06:40;98429.72;;;27.24;49.63
67818;BME280;54614;47.576;7.524;2023-08-17T23:09:06;98424.44;;;27.29;49.63
67818;BME280;54614;47.576;7.524;2023-08-17T23:11:32;98421.97;;;27.27;49.27
67818;BME280;54614;47.576;7.524;2023-08-17T23:13:58;98430.09;;;27.27;48.90
67818;BME280;54614;47.576;7.524;2023-08-17T23:16:25;98427.16;;;27.29;49.31
67818;BME280;54614;47.576;7.524;2023-08-17T23:18:51;98423.03;;;27.26;49.26
67818;BME280;54614;47.576;7.524;2023-08-17T23:21:17;98420.09;;;27.28;49.33
67818;BME280;54614;47.576;7.524;2023-08-17T23:23:43;98427.63;;;27.26;48.94
67818;BME280;54614;47.576;7.524;2023-08-17T23:26:09;98418.34;;;27.22;49.35
67818;BME280;54614;47.576;7.524;2023-08-17T23:28:35;98421.63;;;27.24;48.95
67818;BME280;54614;47.576;7.524;2023-08-17T23:31:01;98432.78;;;27.27;49.00
67818;BME280;54614;47.576;7.524;2023-08-17T23:33:28;98429.84;;;27.29;49.00
67818;BME280;54614;47.576;7.524;2023-08-17T23:35:54;98427.84;;;27.24;48.88
67818;BME280;54614;47.576;7.524;2023-08-17T23:38:21;98441.34;;;27.24;48.92
67818;BME280;54614;47.576;7.524;2023-08-17T23:40:48;98442.41;;;27.23;49.34
67818;BME280;54614;47.576;7.524;2023-08-17T23:43:14;98442.88;;;27.20;48.98
67818;BME280;54614;47.576;7.524;2023-08-17T23:45:40;98445.94;;;27.24;48.87
67818;BME280;54614;47.576;7.524;2023-08-17T23:48:06;98438.66;;;27.24;48.85
67818;BME280;54614;47.576;7.524;2023-08-17T23:50:32;98440.28;;;27.25;48.92
67818;BME280;54614;47.576;7.524;2023-08-17T23:52:58;98438.88;;;27.23;48.28
67818;BME280;54614;47.576;7.524;2023-08-17T23:55:24;98429.13;;;27.22;48.67
67818;BME280;54614;47.576;7.524;2023-08-17T23:57:49;98423.50;;;27.23;48.80
